createdAt,value
2019-06-10T00:00:31.272Z,12.30
2019-06-10T00:03:02.844Z,12.30
2019-06-10T00:05:34.783Z,12.30
2019-06-10T00:08:05.794Z,12.20
2019-06-10T00:10:38.959Z,12.20
2019-06-10T00:13:11.887Z,12.20
2019-06-10T00:15:46.752Z,12.20
2019-06-10T00:18:37.356Z,12.20
2019-06-10T00:20:57.635Z,12.20
2019-06-10T00:23:32.007Z,12.20
2019-06-10T00:26:06.110Z,12.20
2019-06-10T00:28:36.647Z,12.20
2019-06-10T00:31:11.605Z,12.20
2019-06-10T00:33:46.261Z,12.20
2019-06-10T00:36:21.579Z,12.20
2019-06-10T00:38:55.299Z,12.20
2019-06-10T00:41:31.322Z,12.20
2019-06-10T00:44:08.336Z,12.20
2019-06-10T00:46:43.147Z,12.20
2019-06-10T00:49:17.602Z,12.30
2019-06-10T00:51:50.980Z,12.30
2019-06-10T00:54:24.473Z,12.30
2019-06-10T00:56:57.346Z,12.20
2019-06-10T00:59:31.282Z,12.20
2019-06-10T01:02:03.339Z,12.20
2019-06-10T01:04:36.608Z,12.20
2019-06-10T01:07:08.548Z,12.20
2019-06-10T01:09:41.275Z,12.20
2019-06-10T01:12:14.936Z,12.10
2019-06-10T01:14:51.635Z,12.10
2019-06-10T01:17:28.044Z,12.10
2019-06-10T01:20:01.582Z,12.10
2019-06-10T01:22:34.345Z,12.10
2019-06-10T01:25:05.276Z,12.10
2019-06-10T01:27:41.071Z,12.10
2019-06-10T01:30:20.609Z,12.10
2019-06-10T01:32:47.587Z,12.10
2019-06-10T01:35:21.094Z,12.10
2019-06-10T01:37:54.915Z,12.20
2019-06-10T01:40:28.010Z,12.20
2019-06-10T01:43:01.120Z,12.20
2019-06-10T01:45:35.405Z,12.20
2019-06-10T01:48:13.114Z,12.10
2019-06-10T01:50:47.304Z,12.20
2019-06-10T01:53:18.813Z,12.20
2019-06-10T01:55:52.200Z,12.20
2019-06-10T01:58:26.983Z,12.20
2019-06-10T02:01:18.634Z,12.30
2019-06-10T02:03:52.024Z,12.30
2019-06-10T02:06:26.000Z,12.30
2019-06-10T02:09:06.828Z,12.30
2019-06-10T02:11:41.415Z,12.30
2019-06-10T02:14:17.448Z,12.40
2019-06-10T02:16:50.670Z,12.40
2019-06-10T02:19:22.929Z,12.50
2019-06-10T02:21:56.162Z,12.60
2019-06-10T02:24:33.028Z,12.60
2019-06-10T02:27:06.693Z,12.60
2019-06-10T02:29:37.630Z,12.70
2019-06-10T02:32:15.891Z,12.70
2019-06-10T02:35:02.014Z,12.80
2019-06-10T02:37:30.742Z,12.80
2019-06-10T02:39:54.349Z,12.80
2019-06-10T02:42:35.656Z,12.80
2019-06-10T02:45:06.402Z,12.80
2019-06-10T02:47:39.969Z,12.80
2019-06-10T02:50:16.225Z,12.80
2019-06-10T02:53:15.265Z,12.80
2019-06-10T02:55:48.319Z,12.70
2019-06-10T02:58:30.394Z,12.70
2019-06-10T03:00:58.304Z,12.70
2019-06-10T03:03:39.452Z,12.70
2019-06-10T03:06:08.716Z,12.80
2019-06-10T03:08:38.626Z,12.70
2019-06-10T03:11:08.749Z,12.80
2019-06-10T03:13:38.830Z,12.80
2019-06-10T03:16:30.024Z,12.90
2019-06-10T03:19:02.975Z,13.00
2019-06-10T03:21:37.344Z,13.10
2019-06-10T03:24:13.141Z,13.20
2019-06-10T03:26:46.175Z,13.30
2019-06-10T03:29:23.307Z,13.40
2019-06-10T03:31:59.118Z,13.40
2019-06-10T03:34:41.239Z,13.50
2019-06-10T03:37:07.046Z,13.60
2019-06-10T03:39:43.422Z,13.60
2019-06-10T03:42:16.841Z,13.70
2019-06-10T03:44:52.523Z,13.80
2019-06-10T03:47:25.908Z,13.90
2019-06-10T03:50:03.265Z,13.90
2019-06-10T03:52:37.696Z,13.90
2019-06-10T03:55:12.278Z,13.90
2019-06-10T03:57:45.535Z,13.90
2019-06-10T04:00:19.403Z,14.00
2019-06-10T04:02:53.209Z,14.00
2019-06-10T04:05:28.888Z,14.10
2019-06-10T04:07:58.272Z,14.00
2019-06-10T04:10:29.621Z,14.10
2019-06-10T04:13:02.582Z,14.20
2019-06-10T04:15:36.811Z,14.30
2019-06-10T04:18:09.448Z,14.30
2019-06-10T04:20:42.670Z,14.30
2019-06-10T04:23:12.652Z,14.40
2019-06-10T04:25:47.297Z,14.40
2019-06-10T04:28:23.128Z,14.50
2019-06-10T04:30:55.647Z,14.50
2019-06-10T04:33:27.633Z,14.50
2019-06-10T04:36:03.148Z,14.50
2019-06-10T04:38:36.895Z,14.60
2019-06-10T04:41:12.602Z,14.60
2019-06-10T04:43:43.462Z,14.70
2019-06-10T04:46:18.593Z,14.80
2019-06-10T04:48:50.176Z,14.80
2019-06-10T04:51:26.629Z,14.90
2019-06-10T04:54:03.091Z,15.00
2019-06-10T04:56:38.151Z,15.10
2019-06-10T04:59:12.676Z,15.10
2019-06-10T05:01:46.683Z,15.10
2019-06-10T05:04:21.636Z,15.30
2019-06-10T05:06:56.575Z,15.50
2019-06-10T05:09:31.286Z,15.60
2019-06-10T05:12:08.769Z,15.90
2019-06-10T05:14:40.158Z,16.00
2019-06-10T05:17:12.723Z,16.20
2019-06-10T05:19:46.463Z,16.60
2019-06-10T05:22:19.605Z,16.60
2019-06-10T05:24:55.147Z,16.40
2019-06-10T05:27:38.303Z,16.20
2019-06-10T05:30:12.328Z,15.90
2019-06-10T05:32:46.241Z,15.80
2019-06-10T05:35:21.041Z,15.80
2019-06-10T05:37:56.126Z,15.70
2019-06-10T05:40:29.431Z,15.70
2019-06-10T05:43:02.458Z,15.80
2019-06-10T05:45:35.891Z,15.70
2019-06-10T05:48:07.807Z,15.70
2019-06-10T05:50:42.809Z,15.80
2019-06-10T05:53:17.123Z,15.80
2019-06-10T05:55:52.818Z,15.90
2019-06-10T05:58:26.501Z,15.90
2019-06-10T06:01:02.768Z,15.90
2019-06-10T06:03:36.932Z,15.90
2019-06-10T06:06:12.476Z,15.90
2019-06-10T06:08:46.155Z,15.90
2019-06-10T06:11:22.952Z,16.00
2019-06-10T06:13:55.391Z,16.00
2019-06-10T06:16:32.642Z,16.00
2019-06-10T06:19:07.774Z,16.10
2019-06-10T06:21:44.714Z,16.10
2019-06-10T06:24:15.886Z,16.20
2019-06-10T06:26:46.214Z,16.30
2019-06-10T06:29:17.366Z,16.40
2019-06-10T06:31:52.370Z,16.50
2019-06-10T06:34:23.144Z,16.50
2019-06-10T06:36:58.542Z,16.40
2019-06-10T06:39:33.415Z,16.50
2019-06-10T06:42:06.435Z,16.50
2019-06-10T06:44:43.289Z,16.50
2019-06-10T06:47:13.342Z,16.60
2019-06-10T06:49:46.502Z,16.60
2019-06-10T06:52:38.859Z,16.70
2019-06-10T06:54:54.766Z,16.80
2019-06-10T06:57:28.902Z,16.80
2019-06-10T07:00:34.273Z,16.90
2019-06-10T07:02:38.805Z,16.80
2019-06-10T07:05:12.524Z,16.90
2019-06-10T07:07:43.509Z,17.10
2019-06-10T07:10:17.519Z,17.10
2019-06-10T07:12:53.087Z,17.10
2019-06-10T07:15:34.090Z,17.20
2019-06-10T07:18:05.271Z,17.20
2019-06-10T07:20:38.219Z,17.20
2019-06-10T07:23:08.187Z,17.20
2019-06-10T07:25:42.243Z,17.30
2019-06-10T07:28:13.855Z,17.40
2019-06-10T07:30:52.759Z,17.40
2019-06-10T07:33:23.807Z,17.40
2019-06-10T07:35:57.091Z,17.50
2019-06-10T07:38:33.957Z,17.60
2019-06-10T07:41:06.307Z,17.60
2019-06-10T07:43:42.398Z,17.50
2019-06-10T07:46:15.552Z,17.40
2019-06-10T07:48:49.349Z,17.50
2019-06-10T07:51:22.586Z,17.50
2019-06-10T07:53:56.281Z,17.60
2019-06-10T07:56:31.744Z,17.60
2019-06-10T07:59:04.207Z,17.70
2019-06-10T08:01:36.684Z,17.60
2019-06-10T08:04:12.071Z,17.60
2019-06-10T08:06:45.858Z,17.70
2019-06-10T08:09:19.679Z,17.80
2019-06-10T08:11:53.383Z,17.90
2019-06-10T08:14:26.755Z,18.10
2019-06-10T08:17:02.935Z,18.20
2019-06-10T08:19:38.721Z,18.20
2019-06-10T08:22:13.019Z,18.10
2019-06-10T08:24:46.123Z,18.10
2019-06-10T08:27:33.434Z,18.10
2019-06-10T08:30:21.617Z,18.10
2019-06-10T08:32:45.301Z,18.10
2019-06-10T08:35:16.703Z,18.20
2019-06-10T08:37:49.858Z,18.30
2019-06-10T08:40:22.999Z,18.40
2019-06-10T08:42:53.753Z,18.30
2019-06-10T08:45:26.815Z,18.30
2019-06-10T08:48:02.528Z,18.30
2019-06-10T08:50:34.240Z,18.30
2019-06-10T08:53:14.772Z,18.40
2019-06-10T08:55:46.162Z,18.50
2019-06-10T08:58:19.168Z,18.50
2019-06-10T09:00:53.559Z,18.60
2019-06-10T09:03:27.137Z,18.60
2019-06-10T09:06:03.434Z,18.60
2019-06-10T09:08:39.655Z,18.60
2019-06-10T09:11:13.067Z,18.70
2019-06-10T09:13:53.025Z,18.80
2019-06-10T09:16:27.679Z,18.80
2019-06-10T09:19:02.417Z,18.90
2019-06-10T09:21:37.076Z,18.90
2019-06-10T09:24:12.839Z,19.00
2019-06-10T09:26:48.219Z,19.00
2019-06-10T09:29:22.167Z,19.10
2019-06-10T09:31:55.914Z,19.10
2019-06-10T09:34:33.069Z,19.20
2019-06-10T09:37:06.216Z,19.20
2019-06-10T09:39:44.199Z,19.10
2019-06-10T09:42:14.373Z,19.00
2019-06-10T09:44:49.227Z,19.20
2019-06-10T09:47:23.682Z,19.20
2019-06-10T09:49:56.959Z,19.30
2019-06-10T09:52:32.973Z,19.40
2019-06-10T09:55:08.856Z,19.50
2019-06-10T09:57:45.141Z,19.70
2019-06-10T10:00:22.789Z,19.80
2019-06-10T10:02:57.835Z,19.80
2019-06-10T10:05:33.823Z,19.70
2019-06-10T10:08:08.259Z,19.70
2019-06-10T10:10:47.136Z,19.60
2019-06-10T10:13:23.068Z,19.60
2019-06-10T10:15:56.229Z,19.60
2019-06-10T10:18:32.624Z,19.60
2019-06-10T10:21:03.816Z,19.70
2019-06-10T10:23:50.137Z,19.80
2019-06-10T10:26:08.320Z,19.90
2019-06-10T10:28:42.812Z,19.80
2019-06-10T10:31:19.295Z,19.80
2019-06-10T10:33:52.800Z,19.80
2019-06-10T10:36:27.496Z,19.90
2019-06-10T10:39:02.277Z,20.00
2019-06-10T10:41:37.249Z,20.10
2019-06-10T10:44:08.859Z,20.30
2019-06-10T10:46:42.810Z,20.30
2019-06-10T10:49:19.200Z,20.40
2019-06-10T10:51:51.427Z,20.40
2019-06-10T10:54:32.972Z,20.50
2019-06-10T10:56:59.017Z,20.50
2019-06-10T10:59:33.218Z,20.50
2019-06-10T11:02:07.520Z,20.50
2019-06-10T11:04:46.236Z,20.60
2019-06-10T11:07:21.777Z,20.70
2019-06-10T11:09:56.683Z,20.80
2019-06-10T11:12:28.128Z,20.70
2019-06-10T11:15:05.083Z,20.70
2019-06-10T11:17:36.735Z,20.70
2019-06-10T11:20:08.899Z,20.70
2019-06-10T11:22:39.835Z,20.70
2019-06-10T11:25:12.456Z,20.60
2019-06-10T11:27:46.398Z,20.60
2019-06-10T11:30:19.755Z,20.60
2019-06-10T11:32:55.892Z,20.70
2019-06-10T11:35:25.428Z,20.90
2019-06-10T11:37:58.660Z,21.10
2019-06-10T11:40:34.099Z,21.00
2019-06-10T11:43:09.119Z,20.90
2019-06-10T11:45:48.321Z,21.00
2019-06-10T11:48:17.855Z,21.00
2019-06-10T11:50:49.196Z,21.20
2019-06-10T11:53:22.703Z,21.20
2019-06-10T11:55:51.793Z,21.10
2019-06-10T11:58:23.428Z,21.00
2019-06-10T12:00:58.798Z,21.00
2019-06-10T12:03:33.004Z,21.00
2019-06-10T12:06:06.411Z,21.00
2019-06-10T12:08:38.963Z,21.00
2019-06-10T12:11:12.404Z,21.00
2019-06-10T12:13:42.780Z,21.20
2019-06-10T12:17:05.584Z,21.30
2019-06-10T12:18:46.898Z,21.40
2019-06-10T12:21:19.200Z,21.40
2019-06-10T12:23:57.137Z,21.40
2019-06-10T12:26:30.215Z,21.30
2019-06-10T12:29:05.569Z,21.30
2019-06-10T12:31:37.295Z,21.40
2019-06-10T12:34:12.325Z,21.30
2019-06-10T12:36:41.846Z,21.40
2019-06-10T12:39:17.347Z,21.30
2019-06-10T12:41:55.114Z,21.30
2019-06-10T12:44:28.418Z,21.30
2019-06-10T12:47:07.549Z,21.40
2019-06-10T12:49:39.210Z,21.40
2019-06-10T12:52:12.664Z,21.40
2019-06-10T12:54:43.995Z,21.40
2019-06-10T12:57:16.377Z,21.50
2019-06-10T12:59:45.722Z,21.50
2019-06-10T13:02:22.650Z,21.50
2019-06-10T13:04:48.918Z,21.70
2019-06-10T13:07:24.447Z,21.80
2019-06-10T13:09:59.674Z,21.70
2019-06-10T13:12:33.507Z,21.70
2019-06-10T13:15:08.894Z,21.70
2019-06-10T13:17:44.021Z,21.80
2019-06-10T13:20:17.347Z,21.80
2019-06-10T13:22:54.400Z,21.80
2019-06-10T13:25:28.291Z,21.60
2019-06-10T13:28:06.701Z,21.60
2019-06-10T13:30:38.602Z,21.60
2019-06-10T13:33:11.061Z,21.80
2019-06-10T13:35:44.278Z,21.90
2019-06-10T13:38:17.407Z,21.90
2019-06-10T13:40:52.714Z,22.10
2019-06-10T13:43:24.943Z,22.10
2019-06-10T13:45:58.498Z,22.00
2019-06-10T13:48:29.061Z,22.10
2019-06-10T13:51:00.633Z,22.20
2019-06-10T13:53:32.511Z,22.30
2019-06-10T13:56:28.723Z,22.30
2019-06-10T13:58:34.806Z,22.20
2019-06-10T14:01:13.864Z,22.20
2019-06-10T14:03:43.242Z,22.20
2019-06-10T14:06:32.654Z,22.10
2019-06-10T14:08:49.339Z,22.10
2019-06-10T14:11:25.791Z,22.10
2019-06-10T14:13:55.743Z,22.30
2019-06-10T14:16:28.776Z,22.30
2019-06-10T14:19:03.762Z,22.40
2019-06-10T14:21:36.587Z,22.50
2019-06-10T14:24:12.810Z,22.50
2019-06-10T14:26:47.393Z,22.50
2019-06-10T14:29:20.287Z,22.70
2019-06-10T14:31:53.459Z,22.90
2019-06-10T14:34:29.295Z,23.10
2019-06-10T14:37:01.863Z,23.40
2019-06-10T14:39:35.531Z,23.40
2019-06-10T14:42:10.271Z,23.50
2019-06-10T14:44:44.223Z,23.50
2019-06-10T14:47:16.897Z,23.50
2019-06-10T14:49:52.990Z,23.40
2019-06-10T14:52:27.550Z,23.40
2019-06-10T14:55:02.628Z,23.40
2019-06-10T14:57:36.607Z,23.40
2019-06-10T15:00:13.210Z,23.50
2019-06-10T15:02:44.864Z,23.20
2019-06-10T15:05:17.382Z,23.20
2019-06-10T15:07:52.699Z,23.20
2019-06-10T15:10:25.731Z,23.10
2019-06-10T15:12:59.431Z,23.20
2019-06-10T15:15:29.947Z,23.10
2019-06-10T15:18:02.949Z,23.10
2019-06-10T15:20:42.853Z,23.00
2019-06-10T15:23:17.027Z,23.00
2019-06-10T15:25:52.400Z,22.80
2019-06-10T15:28:23.586Z,22.80
2019-06-10T15:30:57.008Z,23.00
2019-06-10T15:33:32.410Z,23.10
2019-06-10T15:36:04.849Z,23.20
2019-06-10T15:38:38.111Z,23.40
2019-06-10T15:41:15.006Z,23.40
2019-06-10T15:43:47.295Z,23.30
2019-06-10T15:46:19.573Z,23.30
2019-06-10T15:48:54.881Z,23.10
2019-06-10T15:51:26.824Z,23.10
2019-06-10T15:54:02.613Z,23.20
2019-06-10T15:56:46.985Z,23.30
2019-06-10T15:59:13.311Z,23.50
2019-06-10T16:01:46.399Z,23.60
2019-06-10T16:04:25.692Z,24.30
2019-06-10T16:06:58.311Z,24.70
2019-06-10T16:09:33.157Z,24.80
2019-06-10T16:12:07.937Z,25.00
2019-06-10T16:14:39.514Z,25.00
2019-06-10T16:17:12.901Z,25.30
2019-06-10T16:19:47.199Z,25.80
2019-06-10T16:22:24.398Z,26.50
2019-06-10T16:24:56.296Z,27.10
2019-06-10T16:27:43.396Z,27.60
2019-06-10T16:30:02.771Z,27.90
2019-06-10T16:32:35.104Z,28.20
2019-06-10T16:35:07.975Z,28.30
2019-06-10T16:37:42.236Z,28.90
2019-06-10T16:40:17.496Z,28.90
2019-06-10T16:42:53.228Z,28.70
2019-06-10T16:45:29.104Z,28.50
2019-06-10T16:48:02.432Z,28.70
2019-06-10T16:50:37.188Z,29.20
2019-06-10T16:53:08.059Z,29.20
2019-06-10T16:55:40.545Z,29.50
2019-06-10T16:58:13.042Z,29.40
2019-06-10T17:00:46.859Z,28.90
2019-06-10T17:03:20.312Z,29.10
2019-06-10T17:05:53.337Z,29.70
2019-06-10T17:08:26.178Z,29.70
2019-06-10T17:10:58.847Z,29.60
2019-06-10T17:13:33.221Z,29.90
2019-06-10T17:16:08.063Z,29.70
2019-06-10T17:18:42.824Z,29.70
2019-06-10T17:21:21.115Z,29.70
2019-06-10T17:23:54.848Z,29.80
2019-06-10T17:26:34.473Z,30.00
2019-06-10T17:29:02.853Z,30.20
2019-06-10T17:31:35.191Z,30.00
2019-06-10T17:34:07.785Z,29.40
2019-06-10T17:36:42.707Z,29.30
2019-06-10T17:39:17.443Z,29.60
2019-06-10T17:41:54.783Z,29.50
2019-06-10T17:44:32.453Z,29.20
2019-06-10T17:47:08.839Z,28.90
2019-06-10T17:49:41.973Z,28.70
2019-06-10T17:52:13.143Z,28.50
2019-06-10T17:54:47.359Z,27.60
2019-06-10T17:57:23.149Z,26.30
2019-06-10T17:59:58.048Z,25.00
2019-06-10T18:02:34.565Z,23.80
2019-06-10T18:05:07.679Z,22.80
2019-06-10T18:07:41.310Z,22.10
2019-06-10T18:10:15.367Z,21.50
2019-06-10T18:12:52.628Z,21.50
2019-06-10T18:15:24.184Z,22.50
2019-06-10T18:17:58.399Z,23.20
2019-06-10T18:20:33.553Z,23.30
2019-06-10T18:23:08.479Z,22.90
2019-06-10T18:25:43.378Z,22.30
2019-06-10T18:28:17.214Z,21.80
2019-06-10T18:30:53.141Z,21.40
2019-06-10T18:33:24.015Z,21.00
2019-06-10T18:35:54.581Z,20.80
2019-06-10T18:38:25.092Z,20.60
2019-06-10T18:40:55.612Z,20.40
2019-06-10T18:43:25.447Z,20.30
2019-06-10T18:45:55.979Z,20.10
2019-06-10T18:48:35.464Z,19.90
2019-06-10T18:51:07.369Z,19.80
2019-06-10T18:53:41.990Z,19.70
2019-06-10T18:56:12.915Z,19.50
2019-06-10T18:58:45.729Z,19.40
2019-06-10T19:01:18.398Z,19.30
2019-06-10T19:03:52.036Z,19.20
2019-06-10T19:06:25.759Z,19.10
2019-06-10T19:09:03.112Z,19.00
2019-06-10T19:11:34.125Z,18.90
2019-06-10T19:14:06.215Z,18.80
2019-06-10T19:16:40.184Z,18.70
2019-06-10T19:19:13.586Z,18.70
2019-06-10T19:22:01.822Z,18.60
2019-06-10T19:24:23.455Z,18.50
2019-06-10T19:27:02.050Z,18.50
2019-06-10T19:29:42.318Z,18.40
2019-06-10T19:32:08.418Z,18.30
2019-06-10T19:34:47.320Z,18.20
2019-06-10T19:37:17.310Z,18.10
2019-06-10T19:39:53.732Z,18.00
2019-06-10T19:42:23.847Z,18.00
2019-06-10T19:44:57.871Z,17.90
2019-06-10T19:47:34.658Z,17.80
2019-06-10T19:50:07.458Z,17.80
2019-06-10T19:52:41.590Z,17.80
2019-06-10T19:55:15.615Z,17.80
2019-06-10T19:57:49.641Z,17.70
2019-06-10T20:00:25.036Z,17.60
2019-06-10T20:02:56.123Z,17.50
2019-06-10T20:05:29.330Z,17.50
2019-06-10T20:08:02.984Z,17.40
2019-06-10T20:10:35.954Z,17.30
2019-06-10T20:13:06.308Z,17.20
2019-06-10T20:15:37.381Z,17.10
2019-06-10T20:18:12.270Z,17.00
2019-06-10T20:20:47.248Z,16.90
2019-06-10T20:23:21.826Z,16.70
2019-06-10T20:25:55.902Z,16.60
2019-06-10T20:28:32.151Z,16.50
2019-06-10T20:31:06.815Z,16.20
2019-06-10T20:33:43.371Z,16.00
2019-06-10T20:36:23.260Z,15.80
2019-06-10T20:38:54.942Z,15.70
2019-06-10T20:41:25.263Z,15.60
2019-06-10T20:43:56.417Z,15.50
2019-06-10T20:46:32.365Z,15.40
2019-06-10T20:49:03.483Z,15.40
2019-06-10T20:51:48.814Z,15.30
2019-06-10T20:54:12.719Z,15.20
2019-06-10T20:56:48.621Z,15.00
2019-06-10T20:59:17.814Z,14.90
2019-06-10T21:01:51.249Z,14.80
2019-06-10T21:04:26.244Z,14.80
2019-06-10T21:07:02.488Z,14.80
2019-06-10T21:09:35.903Z,14.70
2019-06-10T21:12:09.955Z,14.50
2019-06-10T21:14:42.717Z,14.50
2019-06-10T21:17:17.440Z,14.50
2019-06-10T21:19:51.451Z,14.40
2019-06-10T21:22:24.011Z,14.30
2019-06-10T21:24:55.683Z,14.20
2019-06-10T21:27:28.174Z,14.10
2019-06-10T21:30:03.125Z,14.00
2019-06-10T21:32:37.200Z,14.00
2019-06-10T21:35:08.867Z,14.00
2019-06-10T21:37:44.873Z,13.90
2019-06-10T21:40:17.247Z,13.80
2019-06-10T21:42:54.119Z,13.70
2019-06-10T21:45:27.679Z,13.60
2019-06-10T21:48:02.611Z,13.50
2019-06-10T21:50:36.352Z,13.40
2019-06-10T21:53:07.203Z,13.40
2019-06-10T21:55:42.049Z,13.40
2019-06-10T21:58:17.631Z,13.30
2019-06-10T22:01:08.301Z,13.20
2019-06-10T22:03:29.193Z,13.20
2019-06-10T22:06:01.862Z,13.10
2019-06-10T22:08:36.075Z,13.10
2019-06-10T22:11:09.218Z,13.00
2019-06-10T22:13:43.986Z,13.00
2019-06-10T22:16:19.007Z,12.90
2019-06-10T22:18:52.923Z,12.90
2019-06-10T22:21:25.699Z,12.90
2019-06-10T22:23:59.391Z,12.80
2019-06-10T22:26:32.408Z,12.80
2019-06-10T22:29:05.504Z,12.70
2019-06-10T22:31:52.303Z,12.70
2019-06-10T22:34:22.926Z,12.70
2019-06-10T22:36:57.857Z,12.60
2019-06-10T22:39:33.506Z,12.60
2019-06-10T22:42:09.254Z,12.50
2019-06-10T22:44:43.071Z,12.40
2019-06-10T22:47:15.781Z,12.40
2019-06-10T22:49:49.979Z,12.30
2019-06-10T22:52:23.090Z,12.30
2019-06-10T22:54:58.415Z,12.20
2019-06-10T22:57:30.655Z,12.10
2019-06-10T23:00:03.456Z,12.10
2019-06-10T23:02:37.095Z,12.10
2019-06-10T23:05:13.039Z,12.00
2019-06-10T23:07:46.656Z,11.90
2019-06-10T23:10:24.414Z,11.80
2019-06-10T23:12:58.500Z,11.80
2019-06-10T23:15:32.187Z,11.80
2019-06-10T23:18:03.803Z,11.80
2019-06-10T23:20:38.384Z,11.80
2019-06-10T23:23:12.613Z,11.70
2019-06-10T23:25:47.523Z,11.70
2019-06-10T23:28:22.051Z,11.60
2019-06-10T23:30:58.593Z,11.60
2019-06-10T23:33:28.799Z,11.60
2019-06-10T23:36:04.026Z,11.60
2019-06-10T23:38:36.871Z,11.60
2019-06-10T23:41:10.341Z,11.50
2019-06-10T23:43:43.536Z,11.40
2019-06-10T23:46:17.279Z,11.30
2019-06-10T23:48:51.339Z,11.30
2019-06-10T23:51:25.281Z,11.30
2019-06-10T23:54:01.997Z,11.20
2019-06-10T23:56:35.935Z,11.10
2019-06-10T23:59:11.930Z,11.10
